Time;durP1;ratioP1;P1;durP2;ratioP2;P2;SDS_P1;SDS_P2;PMS_P1;PMS_P2;Temp;Humidity;BMP_temperature;BMP_pressure;BME280_temperature;BME280_humidity;BME280_pressure;Samples;Min_cycle;Max_cycle;Signal;HPM_P1;HPM_P2
2022/12/11 00:00:04;;;;;;;;;;;;;;;-4.43;100.00;100667.19;5010759;28;20083;-71
2022/12/11 00:02:30;;;;;;;34.88;14.65;;;;;;;-4.50;100.00;100657.03;5029367;28;19970;-73
2022/12/11 00:04:56;;;;;;;;;;;;;;;-4.49;100.00;100655.31;5028567;28;20041;-74
2022/12/11 00:07:21;;;;;;;44.93;16.67;;;;;;;-4.56;100.00;100646.91;5014698;28;19959;-75
2022/12/11 00:09:46;;;;;;;;;;;;;;;-4.57;100.00;100634.78;5029761;28;20029;-71
2022/12/11 00:12:11;;;;;;;38.80;14.87;;;;;;;-4.57;100.00;100642.59;5029279;28;20267;-72
2022/12/11 00:14:37;;;;;;;;;;;;;;;-4.55;100.00;100639.94;5035273;28;20033;-70
2022/12/11 00:17:02;;;;;;;46.15;16.27;;;;;;;-4.51;100.00;100636.28;5035818;28;19912;-71
2022/12/11 00:19:28;;;;;;;43.60;16.83;;;;;;;-4.48;100.00;100641.34;5011586;28;20475;-73
2022/12/11 00:21:53;;;;;;;43.50;16.90;;;;;;;-4.46;100.00;100642.13;5029008;28;20032;-70
2022/12/11 00:24:18;;;;;;;;;;;;;;;-4.47;100.00;100638.69;5029766;28;20029;-70
2022/12/11 00:26:44;;;;;;;49.37;17.70;;;;;;;-4.43;100.00;100643.75;5030616;28;20004;-71
2022/12/11 00:29:13;;;;;;;;;;;;;;;-4.48;100.00;100634.38;5010768;28;20060;-70
2022/12/11 00:31:39;;;;;;;40.75;15.82;;;;;;;-4.53;100.00;100636.34;5035471;28;19923;-71
2022/12/11 00:34:04;;;;;;;;;;;;;;;-4.56;100.00;100628.69;5046413;28;20033;-71
2022/12/11 00:36:29;;;;;;;49.85;18.52;;;;;;;-4.54;100.00;100625.97;5044423;28;19916;-70
2022/12/11 00:38:55;;;;;;;;;;;;;;;-4.50;100.00;100623.16;5045045;28;20075;-70
2022/12/11 00:41:21;;;;;;;41.93;15.33;;;;;;;-4.44;100.00;100626.44;5032175;28;19924;-74
2022/12/11 00:43:46;;;;;;;40.63;16.10;;;;;;;-4.40;100.00;100625.34;5015372;28;20060;-75
2022/12/11 00:46:12;;;;;;;48.00;16.35;;;;;;;-4.36;100.00;100622.53;5038268;28;20506;-70
2022/12/11 00:48:37;;;;;;;;;;;;;;;-4.32;100.00;100637.13;5021773;28;20475;-71
2022/12/11 00:51:03;;;;;;;51.13;16.90;;;;;;;-4.32;100.00;100634.53;5045177;28;20028;-71
2022/12/11 00:53:28;;;;;;;40.95;14.07;;;;;;;-4.26;100.00;100636.03;5044326;28;20064;-71
2022/12/11 00:55:53;;;;;;;;;;;;;;;-4.18;100.00;100640.88;5041445;28;20379;-71
2022/12/11 00:58:19;;;;;;;40.83;16.30;;;;;;;-4.23;100.00;100627.22;5039276;28;19909;-72
2022/12/11 01:00:47;;;;;;;47.03;17.17;;;;;;;-4.21;100.00;100628.81;5042226;28;20293;-75
2022/12/11 01:03:13;;;;;;;38.58;16.92;;;;;;;-4.29;100.00;100623.09;5038074;28;20437;-70
2022/12/11 01:05:38;;;;;;;42.58;16.30;;;;;;;-4.38;100.00;100611.34;5028333;28;20040;-70
2022/12/11 01:08:04;;;;;;;42.00;16.35;;;;;;;-4.31;100.00;100614.50;5045951;28;20079;-71
2022/12/11 01:10:30;;;;;;;44.15;16.85;;;;;;;-4.27;100.00;100609.09;5037989;28;20041;-71
2022/12/11 01:12:57;;;;;;;;;;;;;;;-4.20;100.00;100616.63;5033685;28;20045;-72
2022/12/11 01:15:26;;;;;;;42.03;15.48;;;;;;;-4.33;100.00;100598.97;5038687;28;20016;-71
2022/12/11 01:17:51;;;;;;;42.63;14.88;;;;;;;-4.35;100.00;100585.16;5036430;28;20116;-73
2022/12/11 01:20:18;;;;;;;37.75;14.77;;;;;;;-4.23;100.00;100603.75;5025648;28;20139;-71
2022/12/11 01:22:44;;;;;;;51.15;17.92;;;;;;;-4.18;100.00;100599.16;5034415;28;20032;-71
2022/12/11 01:25:09;;;;;;;42.53;16.08;;;;;;;-4.19;100.00;100597.44;5036683;28;20397;-74
2022/12/11 01:27:36;;;;;;;44.15;17.10;;;;;;;-4.18;100.00;100589.56;5017951;28;20022;-70
2022/12/11 01:30:01;;;;;;;38.10;14.68;;;;;;;-4.12;100.00;100597.13;5042371;28;20063;-73
2022/12/11 01:32:27;;;;;;;44.70;15.63;;;;;;;-4.12;100.00;100589.28;5042669;28;20025;-71
2022/12/11 01:34:52;;;;;;;;;;;;;;;-4.20;100.00;100586.19;5040264;28;20037;-71
2022/12/11 01:37:18;;;;;;;41.78;16.48;;;;;;;-4.36;100.00;100564.34;5025924;28;19909;-71
2022/12/11 01:39:43;;;;;;;;;;;;;;;-4.61;100.00;100546.41;5008563;28;20041;-70
2022/12/11 01:42:15;;;;;;;50.20;19.03;;;;;;;-4.58;100.00;100554.09;5025908;28;20007;-70
2022/12/11 01:44:41;;;;;;;52.35;18.17;;;;;;;-4.63;100.00;100548.25;5032504;28;20099;-74
2022/12/11 01:47:06;;;;;;;48.38;17.63;;;;;;;-4.62;100.00;100550.78;5014489;28;20025;-72
2022/12/11 01:49:32;;;;;;;43.63;18.10;;;;;;;-4.66;100.00;100544.00;5028936;28;20494;-71
2022/12/11 01:51:59;;;;;;;;;;;;;;;-4.78;100.00;100541.97;5025921;28;20041;-71
2022/12/11 01:54:28;;;;;;;47.53;16.92;;;;;;;-4.78;100.00;100548.03;5032599;28;20400;-71
2022/12/11 01:56:57;;;;;;;43.95;17.48;;;;;;;-4.88;100.00;100550.19;5025423;28;20410;-70
2022/12/11 01:59:25;;;;;;;49.35;18.92;;;;;;;-4.85;100.00;100548.38;5025293;28;20068;-72
2022/12/11 02:02:08;;;;;;;45.97;17.58;;;;;;;-4.85;100.00;100562.22;5025157;28;20026;-75
2022/12/11 02:04:37;;;;;;;51.60;19.23;;;;;;;-4.95;100.00;100550.56;5025430;28;20045;-70
2022/12/11 02:07:03;;;;;;;42.30;19.48;;;;;;;-4.92;100.00;100559.09;5037949;28;20150;-70
2022/12/11 02:09:31;;;;;;;42.40;16.50;;;;;;;-4.93;100.00;100561.75;5035694;28;20120;-70
2022/12/11 02:12:23;;;;;;;44.42;16.58;;;;;;;-4.98;100.00;100558.50;5028456;28;20041;-72
2022/12/11 02:15:26;;;;;;;49.05;19.10;;;;;;;-5.04;100.00;100557.00;5034151;28;20029;-74
2022/12/11 02:18:01;;;;;;;43.65;18.60;;;;;;;-4.96;100.00;100567.09;5038614;28;20030;-71
2022/12/11 02:20:52;;;;;;;38.92;16.50;;;;;;;-4.96;100.00;100567.09;5028425;28;20061;-72
2022/12/11 02:23:23;;;;;;;41.47;16.13;;;;;;;-4.95;100.00;100574.81;5029456;28;20111;-71
2022/12/11 02:26:22;;;;;;;42.03;16.35;;;;;;;-4.85;100.00;100585.69;5029187;28;20584;-70
2022/12/11 02:28:57;;;;;;;43.50;16.88;;;;;;;-4.87;100.00;100590.09;5011327;28;20041;-72
2022/12/11 02:31:23;;;;;;;30.63;14.25;;;;;;;-4.90;100.00;100585.88;5028972;28;20641;-72
2022/12/11 02:33:59;;;;;;;;;;;;;;;-4.92;100.00;100582.53;5029549;28;20072;-70
2022/12/11 02:36:31;;;;;;;42.67;15.95;;;;;;;-4.90;100.00;100582.44;5011172;28;20004;-72
2022/12/11 02:39:00;;;;;;;42.60;17.33;;;;;;;-5.05;100.00;100575.31;5020102;28;20505;-71
2022/12/11 02:41:27;;;;;;;48.70;16.95;;;;;;;-4.99;100.00;100573.25;5032990;28;20381;-73
2022/12/11 02:43:55;;;;;;;42.80;16.25;;;;;;;-4.82;100.00;100590.78;5030367;28;20099;-71
2022/12/11 02:46:22;;;;;;;45.28;16.02;;;;;;;-4.79;100.00;100589.78;5024073;28;20471;-73
2022/12/11 02:48:49;;;;;;;48.45;19.00;;;;;;;-4.75;100.00;100597.41;5042179;28;20090;-72
2022/12/11 02:51:20;;;;;;;42.25;16.30;;;;;;;-4.62;100.00;100602.03;5034974;28;20036;-70
2022/12/11 02:53:47;;;;;;;43.22;17.40;;;;;;;-4.59;100.00;100601.91;5048636;28;20090;-75
2022/12/11 02:56:22;;;;;;;40.15;15.80;;;;;;;-4.60;100.00;100597.63;5030589;28;20025;-71
2022/12/11 02:58:54;;;;;;;51.60;18.00;;;;;;;-4.60;100.00;100601.06;5036377;28;20541;-72
2022/12/11 03:01:20;;;;;;;48.85;18.45;;;;;;;-4.59;100.00;100604.50;5010753;28;20083;-70
2022/12/11 03:03:45;;;;;;;35.78;15.48;;;;;;;-4.58;100.00;100603.59;5010857;28;20820;-70
2022/12/11 03:06:13;;;;;;;;;;;;;;;-4.72;100.00;100596.41;5028852;28;20038;-73
2022/12/11 03:08:39;;;;;;;48.05;16.88;;;;;;;-4.86;100.00;100598.78;5010764;28;20339;-70
2022/12/11 03:11:04;;;;;;;43.45;17.25;;;;;;;-4.88;100.00;100599.69;5017301;28;20063;-70
2022/12/11 03:13:30;;;;;;;;;;;;;;;-4.81;100.00;100612.44;5028791;28;20017;-70
2022/12/11 03:16:24;;;;;;;50.15;18.58;;;;;;;-4.78;100.00;100618.34;5028250;28;19913;-73
2022/12/11 03:19:11;;;;;;;46.03;17.20;;;;;;;-4.79;100.00;100619.28;5028042;28;20048;-70
2022/12/11 03:21:45;;;;;;;47.10;16.70;;;;;;;-4.74;100.00;100637.31;5027950;28;20375;-70
2022/12/11 03:24:13;;;;;;;45.13;18.52;;;;;;;-4.63;100.00;100627.25;5028249;28;20029;-72
2022/12/11 03:26:42;;;;;;;44.00;16.52;;;;;;;-4.65;100.00;100625.63;5010077;28;20041;-72
2022/12/11 03:29:18;;;;;;;42.88;17.05;;;;;;;-4.59;100.00;100620.13;5028063;28;20086;-71
2022/12/11 03:32:07;;;;;;;43.05;17.77;;;;;;;-4.56;100.00;100625.22;5045831;28;20033;-70
2022/12/11 03:34:40;;;;;;;41.20;17.23;;;;;;;-4.71;100.00;100606.75;5039193;28;20045;-71
2022/12/11 03:37:07;;;;;;;40.92;15.93;;;;;;;-4.65;100.00;100605.63;5009971;28;20099;-71
2022/12/11 03:39:38;;;;;;;47.60;17.25;;;;;;;-4.65;100.00;100599.59;5028297;28;20048;-73
2022/12/11 03:42:08;;;;;;;45.58;18.65;;;;;;;-4.78;100.00;100594.91;5014683;28;20040;-71
2022/12/11 03:44:35;;;;;;;47.63;17.77;;;;;;;-4.85;100.00;100584.84;5013369;28;20103;-71
2022/12/11 03:47:05;;;;;;;45.95;17.48;;;;;;;-4.83;100.00;100589.06;5040622;28;20083;-75
2022/12/11 03:49:35;;;;;;;47.28;15.35;;;;;;;-4.94;100.00;100568.72;5031597;28;20569;-75
2022/12/11 03:52:03;;;;;;;43.30;16.67;;;;;;;-4.99;100.00;100557.63;5003948;28;20045;-75
2022/12/11 03:54:29;;;;;;;42.80;17.38;;;;;;;-5.10;100.00;100547.72;5038479;28;20033;-71
2022/12/11 03:56:57;;;;;;;43.55;15.15;;;;;;;-5.09;100.00;100551.16;5025353;28;20156;-71
2022/12/11 03:59:23;;;;;;;46.70;18.70;;;;;;;-5.13;100.00;100536.56;5039188;28;20064;-70
2022/12/11 04:01:49;;;;;;;40.13;15.90;;;;;;;-5.22;100.00;100529.16;5017731;28;20061;-71
2022/12/11 04:04:14;;;;;;;;;;;;;;;-5.29;100.00;100523.41;5032764;28;20052;-70
2022/12/11 04:06:40;;;;;;;44.88;15.90;;;;;;;-5.41;100.00;100505.72;5038008;28;20725;-71
2022/12/11 04:09:05;;;;;;;;;;;;;;;-5.53;100.00;100500.13;5041480;28;20471;-73
2022/12/11 04:11:33;;;;;;;42.40;16.88;;;;;;;-5.63;100.00;100493.63;5017735;28;19917;-74
2022/12/11 04:16:44;;;;;;;45.60;15.98;;;;;;;-5.78;100.00;100486.50;5022559;28;20080;-71
2022/12/11 04:24:38;;;;;;;42.15;16.05;;;;;;;-6.07;100.00;100461.75;5034091;28;20052;-72
2022/12/11 04:27:03;;;;;;;;;;;;;;;-6.09;100.00;100455.75;5036181;28;20029;-70
2022/12/11 04:29:28;;;;;;;31.70;12.32;;;;;;;-6.10;100.00;100454.91;5027382;28;19959;-71
2022/12/11 04:31:54;;;;;;;;;;;;;;;-6.12;100.00;100454.13;5030859;28;20043;-70
2022/12/11 04:34:19;;;;;;;36.60;15.30;;;;;;;-6.18;100.00;100443.97;5047069;28;20362;-71
2022/12/11 04:36:44;;;;;;;;;;;;;;;-6.21;100.00;100449.31;5047367;28;20817;-71
2022/12/11 04:39:10;;;;;;;46.45;14.13;;;;;;;-6.26;100.00;100443.47;5024015;28;20298;-70
2022/12/11 04:41:36;;;;;;;;;;;;;;;-6.34;100.00;100441.19;5017579;28;20040;-73
2022/12/11 04:44:01;;;;;;;;;;;;;;;-6.39;100.00;100436.19;5047816;28;20419;-71
2022/12/11 04:46:26;;;;;;;35.95;14.07;;;;;;;-6.35;100.00;100441.25;5021551;28;20023;-73
2022/12/11 04:48:52;;;;;;;;;;;;;;;-6.42;100.00;100432.84;5009694;28;20584;-70
2022/12/11 04:51:18;;;;;;;;;;;;;;;-6.43;100.00;100438.97;5024288;28;19912;-70
2022/12/11 04:53:43;;;;;;;;;;;;;;;-6.44;100.00;100437.25;5021214;28;20040;-71
2022/12/11 04:56:12;;;;;;;41.45;14.05;;;;;;;-6.47;100.00;100443.44;5015771;28;20358;-71
2022/12/11 04:58:38;;;;;;;39.17;13.02;;;;;;;-6.50;100.00;100443.56;5026358;28;20076;-71
2022/12/11 05:01:12;;;;;;;35.25;14.43;;;;;;;-6.59;100.00;100428.34;5026504;28;20399;-70
2022/12/11 05:03:38;;;;;;;42.70;15.15;;;;;;;-6.64;100.00;100425.09;5017928;28;20029;-71
2022/12/11 05:06:03;;;;;;;;;;;;;;;-6.62;100.00;100426.72;5034116;28;20041;-71
2022/12/11 05:08:29;;;;;;;45.83;16.33;;;;;;;-6.67;100.00;100414.81;5026102;28;19920;-71
2022/12/11 05:10:58;;;;;;;;;;;;;;;-6.77;100.00;100411.72;5045706;28;20039;-70
2022/12/11 05:13:24;;;;;;;32.42;13.23;;;;;;;-6.85;100.00;100409.44;5027280;28;19935;-72
2022/12/11 05:15:50;;;;;;;39.22;16.30;;;;;;;-6.88;100.00;100399.19;5035440;28;20025;-70
2022/12/11 05:18:15;;;;;;;;;;;;;;;-6.89;100.00;100407.88;5021919;28;20044;-75
2022/12/11 05:20:40;;;;;;;;;;;;;;;-6.92;100.00;100399.38;5045097;28;19983;-74
2022/12/11 05:23:06;;;;;;;;;;;;;;;-6.93;100.00;100403.72;5045378;28;19917;-73
2022/12/11 05:25:31;;;;;;;43.17;14.27;;;;;;;-6.98;100.00;100392.66;5037453;28;20000;-72
2022/12/11 05:27:56;;;;;;;;;;;;;;;-6.87;100.00;100402.63;5035513;28;20076;-70
2022/12/11 05:30:21;;;;;;;;;;;;;;;-6.89;100.00;100410.47;5038301;28;19909;-73
2022/12/11 05:32:47;;;;;;;38.73;15.53;;;;;;;-6.95;100.00;100408.13;5037906;28;20380;-71
2022/12/11 05:35:12;;;;;;;;;;;;;;;-6.99;100.00;100422.13;5045175;28;20063;-71
2022/12/11 05:37:37;;;;;;;;;;;;;;;-7.03;100.00;100418.78;5038232;28;19917;-70
2022/12/11 05:40:05;;;;;;;38.47;13.77;;;;;;;-7.15;100.00;100408.03;5029384;28;19904;-70
2022/12/11 05:42:31;;;;;;;38.72;14.27;;;;;;;-7.14;100.00;100407.13;5018426;28;20242;-74
2022/12/11 05:44:57;;;;;;;32.83;12.60;;;;;;;-7.06;100.00;100418.06;5026009;28;20029;-70
2022/12/11 05:47:22;;;;;;;;;;;;;;;-7.06;100.00;100413.72;5041787;28;20036;-72
2022/12/11 05:49:47;;;;;;;;;;;;;;;-7.08;100.00;100420.72;5010356;28;19913;-71
2022/12/11 05:52:13;;;;;;;39.30;14.63;;;;;;;-7.15;100.00;100410.63;5013690;28;19925;-70
2022/12/11 05:54:38;;;;;;;;;;;;;;;-7.21;100.00;100403.94;5008073;28;20108;-72
2022/12/11 05:57:03;;;;;;;35.75;13.52;;;;;;;-7.28;100.00;100398.13;5030222;28;19920;-70
2022/12/11 05:59:28;;;;;;;41.05;13.10;;;;;;;-7.29;100.00;100396.44;5045751;28;20104;-72
2022/12/11 06:01:54;;;;;;;;;;;;;;;-7.33;100.00;100388.81;5045495;28;20056;-70
2022/12/11 06:04:19;;;;;;;;;;;;;;;-7.36;100.00;100384.59;5028413;28;19909;-71
2022/12/11 06:06:44;;;;;;;37.13;14.68;;;;;;;-7.37;100.00;100387.25;5045562;28;19923;-71
2022/12/11 06:09:12;;;;;;;;;;;;;;;-7.40;100.00;100385.59;5040764;28;20603;-70
2022/12/11 06:11:37;;;;;;;39.67;13.90;;;;;;;-7.44;100.00;100371.91;5008617;28;19917;-70
2022/12/11 06:14:03;;;;;;;;;;;;;;;-7.41;100.00;100390.88;5033708;28;20041;-71
2022/12/11 06:16:28;;;;;;;34.03;12.15;;;;;;;-7.43;100.00;100377.94;5007169;28;19971;-70
2022/12/11 06:18:53;;;;;;;35.83;13.43;;;;;;;-7.47;100.00;100363.41;5027178;28;20074;-70
2022/12/11 06:21:20;;;;;;;;;;;;;;;-7.40;100.00;100370.03;5028090;28;20051;-72
2022/12/11 06:23:48;;;;;;;32.83;12.90;;;;;;;-7.36;100.00;100378.56;5027586;28;19913;-74
2022/12/11 06:26:17;;;;;;;36.30;14.88;;;;;;;-7.40;100.00;100374.38;5044589;28;20120;-71
2022/12/11 06:28:43;;;;;;;34.47;14.60;;;;;;;-7.43;100.00;100383.97;5011293;28;20021;-71
2022/12/11 06:31:08;;;;;;;;;;;;;;;-7.45;100.00;100382.34;5044259;28;20521;-71
2022/12/11 06:33:34;;;;;;;37.63;13.65;;;;;;;-7.51;100.00;100382.59;5025653;28;19919;-71
2022/12/11 06:36:04;;;;;;;37.50;14.02;;;;;;;-7.53;100.00;100374.84;5041298;28;20102;-72
2022/12/11 06:38:30;;;;;;;31.60;12.77;;;;;;;-7.50;100.00;100379.09;5029051;28;20029;-71
2022/12/11 06:41:00;;;;;;;;;;;;;;;-7.54;100.00;100380.09;4990794;28;20026;-74
2022/12/11 06:43:26;;;;;;;35.88;13.63;;;;;;;-7.55;100.00;100376.66;5007442;28;19917;-74
2022/12/11 06:45:51;;;;;;;;;;;;;;;-7.56;100.00;100372.38;5020505;28;20022;-71
2022/12/11 06:48:17;;;;;;;;;;;;;;;-7.59;100.00;100377.66;5025489;28;19917;-70
2022/12/11 06:50:42;;;;;;;36.70;12.30;;;;;;;-7.56;100.00;100385.34;5024990;28;19920;-70
2022/12/11 06:53:10;;;;;;;35.40;14.02;;;;;;;-7.56;100.00;100398.31;5024763;28;20080;-72
2022/12/11 06:55:35;;;;;;;37.65;12.38;;;;;;;-7.62;100.00;100393.34;5031907;28;20035;-72
2022/12/11 06:58:00;;;;;;;;;;;;;;;-7.55;100.00;100412.13;5041855;28;20037;-73
2022/12/11 07:00:26;;;;;;;29.83;12.85;;;;;;;-7.56;100.00;100419.06;5024270;28;19908;-73
2022/12/11 07:02:52;;;;;;;33.38;13.57;;;;;;;-7.54;100.00;100411.19;5024603;28;20091;-71
2022/12/11 07:05:17;;;;;;;;;;;;;;;-7.51;100.00;100409.34;5008731;28;20510;-71
2022/12/11 07:07:42;;;;;;;35.80;14.80;;;;;;;-7.52;100.00;100417.19;5028339;28;20370;-71
2022/12/11 07:10:08;;;;;;;31.27;12.10;;;;;;;-7.53;100.00;100423.28;5035850;28;20021;-70
2022/12/11 07:12:35;;;;;;;32.75;13.38;;;;;;;-7.54;100.00;100421.56;5048120;28;20036;-70
2022/12/11 07:15:00;;;;;;;31.30;12.57;;;;;;;-7.53;100.00;100412.91;5048229;28;20154;-74
2022/12/11 07:17:27;;;;;;;;;;;;;;;-7.45;100.00;100429.03;5030952;28;20413;-73
2022/12/11 07:19:52;;;;;;;33.20;12.05;;;;;;;-7.41;100.00;100422.00;5048161;28;19995;-70
2022/12/11 07:22:17;;;;;;;;;;;;;;;-7.36;100.00;100420.91;5041820;28;20120;-71
2022/12/11 07:24:42;;;;;;;;;;;;;;;-7.29;100.00;100432.75;5011006;28;19928;-71
2022/12/11 07:27:08;;;;;;;37.63;15.10;;;;;;;-7.20;100.00;100435.91;5023470;28;19912;-70
2022/12/11 07:29:33;;;;;;;;;;;;;;;-7.15;100.00;100445.19;5048184;28;20864;-70
2022/12/11 07:31:58;;;;;;;37.35;13.13;;;;;;;-7.09;100.00;100457.13;5013354;28;20702;-71
2022/12/11 07:34:24;;;;;;;;;;;;;;;-7.01;100.00;100452.47;5048257;28;20049;-71
2022/12/11 07:36:49;;;;;;;;;;;;;;;-6.90;100.00;100476.28;5047970;28;19913;-72
2022/12/11 07:39:14;;;;;;;;;;;;;;;-6.83;100.00;100488.13;5048269;28;19975;-70
2022/12/11 07:41:40;;;;;;;29.40;12.32;;;;;;;-6.79;100.00;100501.81;5029554;28;19913;-70
2022/12/11 07:44:09;;;;;;;37.33;14.05;;;;;;;-6.71;100.00;100506.72;5030264;28;20021;-70
2022/12/11 07:46:36;;;;;;;44.00;15.15;;;;;;;-6.62;100.00;100521.97;5046767;28;20132;-71
2022/12/11 07:49:03;;;;;;;;;;;;;;;-6.47;100.00;100539.53;5032792;28;20096;-73
2022/12/11 07:51:31;;;;;;;39.38;15.30;;;;;;;-6.40;100.00;100542.75;5043021;28;19931;-71
2022/12/11 07:53:59;;;;;;;44.95;16.25;;;;;;;-6.30;100.00;100551.88;5011777;28;20041;-72
2022/12/11 07:56:27;;;;;;;33.90;13.90;;;;;;;-6.25;100.00;100559.47;5031711;28;20120;-70
2022/12/11 07:58:53;;;;;;;36.63;13.07;;;;;;;-6.19;100.00;100551.44;5041676;28;20029;-70
2022/12/11 08:01:22;;;;;;;;;;;;;;;-6.09;100.00;100550.16;5014917;28;20041;-70
2022/12/11 08:03:49;;;;;;;36.35;14.80;;;;;;;-5.99;100.00;100554.09;5012209;28;20704;-72
2022/12/11 08:06:15;;;;;;;34.92;14.50;;;;;;;-5.89;100.00;100564.94;5028072;28;20036;-70
2022/12/11 08:08:41;;;;;;;;;;;;;;;-5.73;100.00;100566.00;5029743;28;20105;-74
2022/12/11 08:11:09;;;;;;;31.35;13.27;;;;;;;-5.64;100.00;100570.00;5027013;28;19913;-73
2022/12/11 08:13:35;;;;;;;37.05;14.75;;;;;;;-5.63;100.00;100557.81;4995967;28;20033;-71
2022/12/11 08:16:08;;;;;;;;;;;;;;;-5.61;100.00;100548.22;4921692;28;20050;-73
2022/12/11 08:18:34;;;;;;;41.30;14.13;;;;;;;-5.57;100.00;100545.41;5009429;28;19917;-70
2022/12/11 08:21:06;;;;;;;;;;;;;;;-5.55;100.00;100538.38;5031295;28;20086;-70
2022/12/11 08:23:32;;;;;;;33.10;13.65;;;;;;;-5.52;100.00;100534.81;5046107;28;19916;-71
2022/12/11 08:25:57;;;;;;;;;;;;;;;-5.51;100.00;100526.09;5012999;28;20130;-71
2022/12/11 08:28:22;;;;;;;;;;;;;;;-5.53;100.00;100515.72;5047322;28;19919;-71
2022/12/11 08:30:47;;;;;;;32.07;13.40;;;;;;;-5.24;100.00;100525.81;5046638;28;19912;-71
2022/12/11 08:33:13;;;;;;;;;;;;;;;-4.51;100.00;100568.53;5046973;28;20040;-70
2022/12/11 08:35:40;;;;;;;36.70;14.80;;;;;;;-3.53;100.00;100605.56;5029992;28;19959;-72
2022/12/11 08:38:05;;;;;;;36.78;13.82;;;;;;;-2.78;100.00;100599.13;5026197;28;20033;-70
2022/12/11 08:40:31;;;;;;;32.33;14.00;;;;;;;-1.78;100.00;100609.38;5025863;28;20478;-70
2022/12/11 08:42:56;;;;;;;31.15;13.70;;;;;;;-0.89;100.00;100617.28;5026027;28;20499;-72
2022/12/11 08:45:21;;;;;;;29.05;12.50;;;;;;;-0.39;100.00;100588.06;5025762;28;20030;-72
2022/12/11 08:47:47;;;;;;;26.63;13.23;;;;;;;0.32;100.00;100544.97;5025552;28;20033;-71
2022/12/11 08:50:12;;;;;;;39.25;22.90;;;;;;;0.81;100.00;100466.28;5025959;28;20478;-72
2022/12/11 08:52:37;;;;;;;30.63;15.83;;;;;;;1.14;100.00;100332.56;5025543;28;20509;-72
2022/12/11 08:55:03;;;;;;;31.70;14.80;;;;;;;1.70;100.00;100211.72;5025578;28;20276;-71
2022/12/11 08:57:28;;;;;;;27.02;14.73;;;;;;;1.98;100.00;100055.06;5025945;28;20307;-72
2022/12/11 08:59:54;;;;;;;27.90;14.90;;;;;;;2.11;100.00;99802.13;5026018;28;20122;-72
2022/12/11 09:02:19;;;;;;;25.52;14.18;;;;;;;2.61;100.00;99595.78;5007488;28;20346;-72
2022/12/11 09:04:45;;;;;;;29.47;16.43;;;;;;;2.81;100.00;99319.81;5008856;28;20136;-72
2022/12/11 09:07:11;;;;;;;27.43;15.00;;;;;;;3.25;100.00;99128.22;5026584;28;20041;-71
2022/12/11 09:09:36;;;;;;;25.23;12.60;;;;;;;2.77;100.00;98707.84;5032943;28;20283;-72
2022/12/11 09:12:03;;;;;;;21.80;10.80;;;;;;;2.65;100.00;98649.38;5021490;28;20050;-72
2022/12/11 09:14:30;;;;;;;23.85;11.68;;;;;;;3.59;100.00;98692.84;5026437;28;20053;-72
2022/12/11 09:16:55;;;;;;;23.87;11.43;;;;;;;4.33;100.00;98581.66;5025977;28;20041;-71
2022/12/11 09:19:20;;;;;;;22.80;11.57;;;;;;;4.34;100.00;98246.97;5014986;28;20037;-72
2022/12/11 09:21:46;;;;;;;22.33;12.00;;;;;;;4.49;100.00;98057.53;5027422;28;20032;-72
2022/12/11 09:24:12;;;;;;;21.02;11.00;;;;;;;4.17;100.00;97734.06;5026277;28;20645;-73
2022/12/11 09:26:38;;;;;;;;;;;;;;;4.18;98.05;97670.47;5008760;28;20041;-72
2022/12/11 09:29:05;;;;;;;18.85;10.18;;;;;;;4.32;98.28;97802.59;5007607;28;19915;-73
2022/12/11 09:31:32;;;;;;;20.33;10.07;;;;;;;4.16;96.61;97611.75;5030193;28;20075;-72
2022/12/11 09:34:04;;;;;;;21.45;11.18;;;;;;;4.49;94.96;97637.44;5026079;28;20033;-72
2022/12/11 09:36:29;;;;;;;21.55;11.15;;;;;;;4.47;92.11;97372.66;5016471;28;20419;-72
2022/12/11 09:38:55;;;;;;;21.73;10.97;;;;;;;5.03;91.47;97540.50;5025785;28;20036;-72
2022/12/11 09:41:20;;;;;;;21.43;11.13;;;;;;;4.93;90.05;97373.59;5032825;28;20090;-68
2022/12/11 09:43:53;;;;;;;20.20;10.83;;;;;;;4.85;89.35;97332.34;5026956;28;20422;-69
2022/12/11 09:46:19;;;;;;;21.30;11.50;;;;;;;4.67;89.51;97411.47;5028651;28;20033;-71
2022/12/11 09:48:46;;;;;;;19.13;10.35;;;;;;;5.40;88.57;97504.63;5019367;28;20332;-72
2022/12/11 09:51:25;;;;;;;18.98;9.98;;;;;;;5.31;86.07;97241.34;5032326;28;20056;-74
2022/12/11 09:53:52;;;;;;;18.80;9.70;;;;;;;4.78;84.31;96872.53;5025539;28;20037;-70
2022/12/11 09:56:26;;;;;;;18.52;10.45;;;;;;;5.05;84.63;97113.59;5007739;28;20029;-72
2022/12/11 09:58:58;;;;;;;20.33;10.52;;;;;;;5.35;83.61;97147.34;4995822;28;20472;-74
2022/12/11 10:01:33;;;;;;;18.33;10.35;;;;;;;4.90;82.23;96859.38;5025318;28;20041;-72
2022/12/11 10:04:01;;;;;;;19.47;10.43;;;;;;;5.04;82.11;96950.72;5040575;28;20037;-73
2022/12/11 10:06:34;;;;;;;17.38;9.65;;;;;;;4.80;80.78;96763.94;4994899;28;20063;-74
2022/12/11 10:09:24;;;;;;;16.83;9.80;;;;;;;4.79;78.93;96582.66;5026946;28;20033;-72
2022/12/11 10:12:21;;;;;;;19.23;10.05;;;;;;;4.24;79.49;96607.41;5024944;28;20384;-71
2022/12/11 10:14:57;;;;;;;15.40;9.05;;;;;;;3.94;76.74;96085.72;5010488;28;20049;-73
2022/12/11 10:17:35;;;;;;;15.38;9.10;;;;;;;3.90;77.41;96347.63;5025218;28;20079;-74
2022/12/11 10:20:19;;;;;;;14.32;8.18;;;;;;;4.99;78.26;96899.56;5023441;28;20076;-73
2022/12/11 10:22:47;;;;;;;13.70;7.72;;;;;;;5.61;75.89;96728.19;5007987;28;20745;-74
2022/12/11 10:25:19;;;;;;;19.13;9.10;;;;;;;5.69;74.28;96533.88;5025345;28;20021;-74
2022/12/11 10:27:45;;;;;;;14.40;7.85;;;;;;;5.90;73.17;96498.81;5028002;28;20037;-71
2022/12/11 10:30:23;;;;;;;14.77;7.80;;;;;;;4.64;70.32;95561.63;5025426;28;20083;-71
2022/12/11 10:32:50;;;;;;;18.92;9.18;;;;;;;5.12;70.79;95952.13;5011290;28;20037;-73
2022/12/11 10:35:37;;;;;;;14.52;8.40;;;;;;;5.39;69.64;95926.56;5014961;28;20029;-68
2022/12/11 10:38:13;;;;;;;14.73;8.88;;;;;;;5.98;68.79;96086.53;5007058;28;20052;-72
2022/12/11 10:40:43;;;;;;;14.70;8.88;;;;;;;4.79;66.98;95372.59;5001286;28;20034;-72
2022/12/11 10:43:09;;;;;;;13.02;7.43;;;;;;;5.33;68.99;96086.19;5029228;28;20040;-70
2022/12/11 10:45:36;;;;;;;14.80;8.05;;;;;;;5.63;67.83;96000.38;5010951;28;20037;-71
2022/12/11 10:48:03;;;;;;;14.02;8.57;;;;;;;5.28;68.39;95972.44;5028870;28;20033;-72
2022/12/11 10:50:29;;;;;;;14.27;8.45;;;;;;;5.12;68.49;95983.84;5033116;28;20434;-70
2022/12/11 10:52:54;;;;;;;13.57;7.37;;;;;;;5.12;67.76;95926.50;5035337;28;20341;-72
2022/12/11 10:55:27;;;;;;;12.07;7.05;;;;;;;5.38;67.36;96070.41;5011137;28;20037;-70
2022/12/11 10:58:02;;;;;;;16.38;7.90;;;;;;;5.37;66.58;95906.69;5030012;28;20037;-72
2022/12/11 11:00:29;;;;;;;15.60;8.55;;;;;;;5.13;65.82;95697.31;5014820;28;20045;-70
2022/12/11 11:02:55;;;;;;;11.45;7.50;;;;;;;5.29;66.20;95869.06;5035201;28;20026;-71
2022/12/11 11:05:33;;;;;;;12.63;7.63;;;;;;;5.81;65.71;96124.44;5010405;28;20659;-69
2022/12/11 11:08:20;;;;;;;12.60;7.93;;;;;;;5.26;65.54;95843.09;5012877;28;20838;-72
2022/12/11 11:10:49;;;;;;;13.30;7.63;;;;;;;4.65;65.92;95843.19;5028195;28;20088;-68
2022/12/11 11:13:15;;;;;;;15.00;8.30;;;;;;;3.91;65.99;95578.84;5035193;28;20073;-69
2022/12/11 11:15:40;;;;;;;13.93;7.43;;;;;;;3.66;66.73;95790.31;5010114;28;20072;-68
2022/12/11 11:18:15;;;;;;;14.93;8.55;;;;;;;3.80;66.94;95961.19;5007141;28;20033;-69
2022/12/11 11:20:46;;;;;;;13.15;7.22;;;;;;;3.86;67.38;96024.59;5016954;28;20044;-70
2022/12/11 11:23:15;;;;;;;15.88;8.98;;;;;;;3.48;67.09;96002.25;5027481;28;20048;-70
2022/12/11 11:26:15;;;;;;;14.43;7.47;;;;;;;3.45;68.37;96247.91;5016713;28;20547;-72
2022/12/11 11:28:47;;;;;;;13.40;7.47;;;;;;;3.48;68.20;96265.91;5037540;28;20444;-68
2022/12/11 11:31:15;;;;;;;12.80;6.85;;;;;;;4.02;68.16;96554.28;5027167;28;20034;-72
2022/12/11 11:33:55;;;;;;;15.43;8.05;;;;;;;4.37;70.63;97068.56;5027470;28;20033;-67
2022/12/11 11:36:29;;;;;;;14.05;8.07;;;;;;;3.57;68.54;96314.66;5027333;28;20037;-68
2022/12/11 11:39:24;;;;;;;15.38;7.93;;;;;;;3.14;68.44;96253.22;5028317;28;20116;-72